< Typhoon 197227 1972 Season Typhoon 197229 >
Typhoon 197228 (RUBY)
General InformationTrack Information on Google Maps || Disaster Info.ResourceGoogle EarthGE AnimationAtom FeedGeoJSON
Detalied Best Track (Time Zone = UTC)
Year Month Day Hour Lat. Long. Pressure (hPa) Wind (kt) Class Image Chart
1972 11 14 06 11.9 180.0 980 0 9 -- Chart
1972 11 14 12 12.2 178.8 970 0 9 -- Chart
1972 11 14 18 12.6 177.7 965 0 9 -- Chart
1972 11 15 00 13.0 176.6 960 0 9 -- Chart
1972 11 15 06 13.5 175.5 950 0 9 -- Chart
1972 11 15 12 14.0 174.5 945 0 9 -- Chart
1972 11 15 18 14.5 173.4 940 0 9 -- Chart
1972 11 16 00 14.5 172.1 940 0 9 -- Chart
1972 11 16 06 15.0 171.4 945 0 9 -- Chart
1972 11 16 12 15.4 170.6 960 0 9 -- Chart
1972 11 16 18 15.5 169.7 965 0 9 -- Chart
1972 11 17 00 15.7 168.6 980 0 9 -- Chart
1972 11 17 06 16.0 167.3 992 0 9 -- Chart
1972 11 17 12 16.2 165.8 994 0 9 -- Chart
1972 11 17 18 16.1 164.6 994 0 9 -- Chart
1972 11 18 00 15.7 163.1 998 0 9 -- Chart
1972 11 18 06 15.4 161.6 1000 0 9 -- Chart
1972 11 18 12 15.4 160.6 1000 0 2 -- Chart
1972 11 18 18 15.6 159.4 1000 0 2 -- Chart
1972 11 19 00 16.0 158.4 996 0 2 -- Chart
1972 11 19 06 16.2 156.9 985 0 9 -- Chart
1972 11 19 12 16.5 156.0 992 0 9 -- Chart
1972 11 19 18 16.7 155.5 994 0 9 -- Chart
1972 11 20 00 17.2 154.5 998 0 2 -- Chart
1972 11 20 06 17.4 153.6 1004 0 2 -- Chart
1972 11 20 12 17.5 152.8 1008 0 2 -- Chart
1972 11 20 18 17.5 152.0 1008 0 2 -- Chart
1972 11 21 00 17.6 151.0 1008 0 2 -- Chart
1972 11 21 06 17.8 149.9 1008 0 2 -- Chart
1972 11 21 12 18.0 148.8 1008 0 2 -- Chart
1972 11 21 18 18.2 147.7 1008 0 2 -- Chart
Japan Meteorological Agency Best Track Data | Correction Date : 1989-06-01
< Typhoon 197227 1972 Season Typhoon 197229 >

Help